Redwood Falls Municipal Airport

About
Name: Redwood Falls Municipal Airport
Identifier:  RWF/KRWF
Local Time:  18. Aug 09:09 CDT
Location
Redwood Falls
  United States

Flights per Day
0 flights
Distance: 135km (83mi)
Punctuality
0% (0 flights per day delayed)
Delay Average: 41 minutes
Current Weather
 17 C (Humidity: 82%)
  9kt (16km/h / 10mph) from 290°
  Scattered clouds at 1,200 feet (365 meter)
  16km (10 mi.)
 METAR KRWF 181353Z AUTO 29009KT 10SM SCT012 17/14 A2985 RMK AO2 SLP105 T01720144

Current Flights

Departures
Number Departure To Airline
Arrivals
Number Arrival From Airline

Current Delays

Departures
N/A
Arrivals
N/A

Destinations

Top Destinations
Airport Flights
per week
Seats
per week
  Sioux Falls (FSD) 0 - 0 0
  Mitchell (MHE) 0 - 0 0
  Great Falls (GTF) 0 - 0 0
  St. Cloud (STC) 0 - 0 0
  Detroit Lakes (DTL) 0 - 0 0
  Hayward (HYR) 0 - 0 0
  Minneapolis (FCM) 0 - 0 0

Airlines & Planes

Top Airlines
Airline Flights
per Day
Seats
per Day
  Flybe Nordic 0 -
Jet Charter Inc ( Franklin Lakes Nj ) 0 -
  National Airlines 0 -
Top Plane Types
Model Flights Seats
Beech B200 Super King Air 0.2/day - 0
Beech G36 Bonanza 0.1/day - 0
Piper PA28-181 0.0/day - 0